Impacts METAR Board INFO
IDs:

KMCO - Orlando Intl, FL, US

Updated at: 1946 UTC 25 Feb 2018
Potential Impact None Slight Moderate High
Time25/07Z 25/08Z 25/09Z 25/10Z 25/11Z 25/12Z 25/13Z 25/14Z 25/15Z 25/16Z 25/17Z 25/18Z 25/19Z
VIS10 10 9 5 7 7 10 10 10 10 10 10 10
CIG-- -- -- -- -- -- 90 -- -- -- -- -- --
CoverFEWFEWFEWFEWFEWSCTBKNFEWSCTSCTSCTFEWSCT
FltCatVFRVFRVFRMVFRVFRVFRVFRVFRVFRVFRVFRVFRVFR
WX----MIFGBRBCFGBCFG--------------
WDir01401400000160170200200210230
WSpd0 5 4 0 0 0 0 7 10 11 8 7 7
WGst-- -- -- -- -- -- -- -- -- -- -- -- --
Raw hourly METARs
KMCO 250653Z 00000KT 10SM FEW080 19/19 A3019 RMK AO2 SLP222 T01940189
KMCO 250753Z 14005KT 10SM FEW014 FEW080 18/18 A3017 RMK AO2 SLP215 T01830183
KMCO 250853Z 14004KT 9SM MIFG FEW015 FEW080 18/18 A3016 RMK AO2 SLP211 T01830183 58011
KMCO 250953Z 00000KT 5SM BR FEW017 18/18 A3016 RMK AO2 SLP211 VIS SE 1 T01830183
KMCO 251053Z 00000KT 7SM BCFG FEW001 17/17 A3017 RMK AO2 SLP214 T01720172
KMCO 251153Z 00000KT 7SM R35L/2800VP6000FT BCFG SCT080 18/18 A3019 RMK AO2 SLP220 VIS E 1/4 T01780178 10200 20172 53009
KMCO 251253Z 00000KT 10SM BKN090 19/19 A3020 RMK AO2 SLP225 T01890189
KMCO 251353Z 16007KT 10SM FEW090 23/21 A3020 RMK AO2 SLP226 T02280206
KMCO 251453Z 17010KT 10SM SCT017 SCT090 25/20 A3021 RMK AO2 SLP227 T02500200 51007
KMCO 251553Z 20011KT 10SM SCT024 SCT090 26/18 A3020 RMK AO2 SLP226 T02610183
KMCO 251653Z 20008KT 10SM SCT033 27/18 A3018 RMK AO2 SLP219 T02720183
KMCO 251753Z 21007KT 10SM FEW042 28/17 A3016 RMK AO2 SLP210 T02830172 10289 20183 58018
KMCO 251853Z 23007KT 10SM SCT049 SCT065 29/16 A3013 RMK AO2 SLP202 T02940161